Time;durP1;ratioP1;P1;durP2;ratioP2;P2;SDS_P1;SDS_P2;PMS_P1;PMS_P2;Temp;Humidity;BMP_temperature;BMP_pressure;BME280_temperature;BME280_humidity;BME280_pressure;Samples;Min_cycle;Max_cycle;Signal;HPM_P1;HPM_P2
2022/10/12 00:00:18;;;;;;;34.20;13.90;;;21.70;69.20;;;;;;4957598;28;20055;-27
2022/10/12 00:02:43;;;;;;;38.03;12.98;;;21.70;69.60;;;;;;4955751;28;20510;-34
2022/10/12 00:05:09;;;;;;;37.83;13.27;;;21.70;70.60;;;;;;4955948;28;20044;-16
2022/10/12 00:07:35;;;;;;;39.25;14.10;;;21.70;71.70;;;;;;4957722;28;20081;-37
2022/10/12 00:10:00;;;;;;;36.47;12.77;;;21.70;71.40;;;;;;4956750;28;20481;-33
2022/10/12 00:12:26;;;;;;;37.17;12.30;;;21.70;72.00;;;;;;4956107;28;20040;-47
2022/10/12 00:14:51;;;;;;;35.97;12.80;;;21.70;72.60;;;;;;4956151;28;20035;-25
2022/10/12 00:17:17;;;;;;;31.83;11.00;;;21.70;73.80;;;;;;4958480;28;20442;-17
2022/10/12 00:19:43;;;;;;;34.33;12.25;;;21.70;76.90;;;;;;4957669;28;20051;-20
2022/10/12 00:22:08;;;;;;;32.42;10.13;;;21.60;59.00;;;;;;4956099;28;20521;-20
2022/10/12 00:24:34;;;;;;;33.42;11.52;;;21.60;59.60;;;;;;4954789;28;20039;-26
2022/10/12 00:26:59;;;;;;;29.63;10.48;;;21.70;59.60;;;;;;4953858;28;20043;-27
2022/10/12 00:29:25;;;;;;;30.92;10.57;;;21.60;59.50;;;;;;4956407;28;20048;-30
2022/10/12 00:31:50;;;;;;;29.52;9.93;;;21.60;60.30;;;;;;4957516;28;20131;-33
2022/10/12 00:34:17;;;;;;;29.98;10.30;;;21.60;59.60;;;;;;4955945;28;20054;-16
2022/10/12 00:36:42;;;;;;;30.58;10.32;;;21.60;59.70;;;;;;4956356;28;20133;-26
2022/10/12 00:39:08;;;;;;;29.33;10.27;;;21.60;59.60;;;;;;4955239;28;20479;-16
2022/10/12 00:41:39;;;;;;;28.70;9.57;;;21.60;59.70;;;;;;4956004;28;20047;-16
2022/10/12 00:44:39;;;;;;;27.05;9.40;;;21.60;59.80;;;;;;4949296;28;20054;-19
2022/10/12 00:47:23;;;;;;;25.92;9.05;;;21.60;59.80;;;;;;4955050;28;20053;-17
2022/10/12 00:50:24;;;;;;;29.42;9.05;;;21.70;60.30;;;;;;4953988;28;20649;-19
2022/10/12 00:52:53;;;;;;;30.83;9.15;;;21.70;61.50;;;;;;4955227;28;20502;-27
2022/10/12 00:55:19;;;;;;;27.50;8.48;;;21.70;63.10;;;;;;4950083;28;20047;-24
2022/10/12 00:57:45;;;;;;;26.90;8.68;;;21.70;66.50;;;;;;4958138;28;20387;-15
2022/10/12 01:00:11;;;;;;;23.25;8.05;;;21.70;70.20;;;;;;4954919;28;20043;-16
2022/10/12 01:02:37;;;;;;;25.38;8.65;;;21.70;66.90;;;;;;4958791;28;20048;-19
2022/10/12 01:05:03;;;;;;;22.92;8.52;;;21.70;66.70;;;;;;4970017;28;20509;-17
2022/10/12 01:07:29;;;;;;;26.30;8.60;;;;;;;;;;4987093;28;20055;-15
2022/10/12 01:09:55;;;;;;;23.33;8.32;;;21.60;59.00;;;;;;4953180;28;20265;-15
2022/10/12 01:12:21;;;;;;;21.70;8.52;;;21.60;59.30;;;;;;4954046;28;20126;-23
2022/10/12 01:14:46;;;;;;;27.23;8.70;;;21.70;60.00;;;;;;4970268;28;20050;-19
2022/10/12 01:17:20;;;;;;;25.67;8.13;;;21.70;59.40;;;;;;4955592;28;20043;-16
2022/10/12 01:19:54;;;;;;;22.63;7.68;;;21.70;59.40;;;;;;4953958;28;20533;-15
2022/10/12 01:22:20;;;;;;;21.70;8.18;;;21.70;59.30;;;;;;4954610;28;20051;-14
2022/10/12 01:24:50;;;;;;;22.70;7.63;;;21.70;59.30;;;;;;4954618;28;20070;-16
2022/10/12 01:27:22;;;;;;;23.95;7.18;;;21.70;59.40;;;;;;4954771;28;20549;-26
2022/10/12 01:30:13;;;;;;;23.58;7.28;;;21.60;59.20;;;;;;4958244;28;20502;-16
2022/10/12 01:32:49;;;;;;;23.13;7.43;;;21.70;59.30;;;;;;4977145;28;20035;-16
2022/10/12 01:35:24;;;;;;;19.45;6.70;;;21.70;59.20;;;;;;4953817;28;20039;-16
2022/10/12 01:38:12;;;;;;;17.92;6.13;;;21.60;59.30;;;;;;4953970;28;20058;-16
2022/10/12 01:40:51;;;;;;;17.67;6.45;;;21.60;59.30;;;;;;4924750;28;20075;-18
2022/10/12 01:43:19;;;;;;;17.17;6.75;;;21.60;59.40;;;;;;4919887;28;20090;-23
2022/10/12 01:45:44;;;;;;;18.50;6.68;;;21.60;60.10;;;;;;4918561;29;20105;-15
2022/10/12 01:48:10;;;;;;;19.35;6.00;;;21.60;60.00;;;;;;4935099;29;20507;-17
2022/10/12 01:50:56;;;;;;;16.90;5.32;;;21.60;59.20;;;;;;4934033;29;20442;-15
2022/10/12 01:53:38;;;;;;;17.67;6.30;;;21.60;59.30;;;;;;4915922;29;20090;-16
2022/10/12 01:56:40;;;;;;;18.38;6.47;;;21.60;59.20;;;;;;4913653;29;20115;-15
2022/10/12 01:59:33;;;;;;;14.65;5.90;;;21.60;59.30;;;;;;4873348;29;20181;-16
2022/10/12 02:02:05;;;;;;;19.38;5.63;;;21.60;59.20;;;;;;4876111;29;20088;-24
2022/10/12 02:04:43;;;;;;;14.30;5.97;;;21.60;59.10;;;;;;4873130;29;20045;-16
2022/10/12 02:07:30;;;;;;;11.68;4.65;;;21.60;59.10;;;;;;4880776;29;20673;-17
2022/10/12 02:09:56;;;;;;;15.13;4.88;;;21.60;59.20;;;;;;4861106;29;20060;-31
2022/10/12 02:12:22;;;;;;;17.52;5.75;;;21.60;59.30;;;;;;4877710;29;20063;-15
2022/10/12 02:14:56;;;;;;;16.48;5.78;;;21.60;59.20;;;;;;4877279;29;20071;-24
2022/10/12 02:17:22;;;;;;;12.50;4.72;;;21.60;59.20;;;;;;4871811;29;20100;-21
2022/10/12 02:19:56;;;;;;;14.85;4.90;;;21.60;59.20;;;;;;4873483;29;20147;-28
2022/10/12 02:22:22;;;;;;;;;;;21.60;59.20;;;;;;4877524;29;20185;-22
2022/10/12 02:24:48;;;;;;;11.95;4.57;;;21.50;59.30;;;;;;4876183;29;20384;-15
2022/10/12 02:27:13;;;;;;;12.95;4.95;;;21.60;59.20;;;;;;4874571;29;20095;-16
2022/10/12 02:29:40;;;;;;;15.77;5.35;;;21.60;59.40;;;;;;4873790;29;20049;-34
2022/10/12 02:32:34;;;;;;;9.88;4.50;;;21.60;59.30;;;;;;4875866;29;20109;-15
2022/10/12 02:35:24;;;;;;;9.93;4.32;;;21.50;59.30;;;;;;4902041;29;20044;-23
2022/10/12 02:37:51;;;;;;;11.77;4.60;;;21.50;59.30;;;;;;4929241;29;20122;-22
2022/10/12 02:40:23;;;;;;;12.15;4.88;;;21.60;59.30;;;;;;4913025;28;20044;-23
2022/10/12 02:42:55;;;;;;;11.30;4.78;;;21.50;59.90;;;;;;4916283;28;20045;-26
2022/10/12 02:45:21;;;;;;;11.68;4.72;;;21.50;59.30;;;;;;4912706;28;20051;-20
2022/10/12 02:47:46;;;;;;;10.55;4.43;;;21.50;59.30;;;;;;4897074;29;20044;-23
2022/10/12 02:50:12;;;;;;;12.70;4.82;;;21.50;59.40;;;;;;4913900;29;20051;-27
2022/10/12 02:52:37;;;;;;;12.43;4.20;;;21.40;59.50;;;;;;4901788;29;20467;-22
2022/10/12 02:55:03;;;;;;;8.65;4.28;;;21.40;59.50;;;;;;4913038;28;20186;-26
2022/10/12 02:57:29;;;;;;;8.00;3.83;;;21.40;59.40;;;;;;4950419;28;20058;-16
2022/10/12 02:59:55;;;;;;;11.10;4.13;;;21.50;59.40;;;;;;4953974;28;20043;-14
2022/10/12 03:02:20;;;;;;;8.95;3.63;;;21.40;59.40;;;;;;4953800;28;20540;-29
2022/10/12 03:04:46;;;;;;;10.13;4.18;;;21.50;59.40;;;;;;4955449;28;20039;-34
2022/10/12 03:07:11;;;;;;;8.63;3.83;;;21.40;59.50;;;;;;4955482;28;20050;-18
2022/10/12 03:09:37;;;;;;;12.60;4.30;;;21.40;59.40;;;;;;4953505;28;20415;-19
2022/10/12 03:12:03;;;;;;;8.23;3.67;;;21.40;59.40;;;;;;4951540;28;20101;-17
2022/10/12 03:14:28;;;;;;;7.63;3.78;;;21.40;59.50;;;;;;4950974;28;20071;-22
2022/10/12 03:16:54;;;;;;;8.38;3.58;;;21.40;59.50;;;;;;4953881;28;20498;-14
2022/10/12 03:19:19;;;;;;;7.10;3.10;;;21.40;59.60;;;;;;4956226;28;20223;-25
2022/10/12 03:21:45;;;;;;;6.97;3.47;;;21.30;59.50;;;;;;4956131;28;20058;-14
2022/10/12 03:24:10;;;;;;;7.28;3.10;;;21.40;59.60;;;;;;4954860;28;20050;-14
2022/10/12 03:26:36;;;;;;;5.70;3.05;;;21.30;59.50;;;;;;4959379;28;20046;-15
2022/10/12 03:29:02;;;;;;;6.90;3.05;;;21.40;59.60;;;;;;4951556;28;20131;-27
2022/10/12 03:31:27;;;;;;;7.05;3.80;;;21.40;59.40;;;;;;4954303;28;20078;-24
2022/10/12 03:33:53;;;;;;;6.53;3.40;;;21.40;60.20;;;;;;4957509;28;20039;-17
2022/10/12 03:36:18;;;;;;;6.57;2.88;;;21.30;59.40;;;;;;4952557;28;20138;-27
2022/10/12 03:38:44;;;;;;;5.57;2.80;;;21.30;59.50;;;;;;4956322;28;20050;-18
2022/10/12 03:41:09;;;;;;;4.78;2.85;;;21.30;59.50;;;;;;4953788;28;20043;-18
2022/10/12 03:43:35;;;;;;;6.65;3.17;;;21.30;59.60;;;;;;4958300;28;20043;-16
2022/10/12 03:46:00;;;;;;;4.32;2.60;;;21.30;59.70;;;;;;4955087;28;20047;-15
2022/10/12 03:48:26;;;;;;;4.30;2.78;;;21.30;59.80;;;;;;4956260;28;20078;-21
2022/10/12 03:50:52;;;;;;;6.93;3.10;;;21.30;59.70;;;;;;4949180;28;20175;-15
2022/10/12 03:53:18;;;;;;;6.40;3.03;;;21.30;59.70;;;;;;4954270;28;20038;-16
2022/10/12 03:55:43;;;;;;;4.53;2.95;;;21.30;60.50;;;;;;4954103;28;20417;-16
2022/10/12 03:58:09;;;;;;;3.92;2.45;;;21.30;59.80;;;;;;4953047;28;20058;-20
2022/10/12 04:00:34;;;;;;;3.38;2.33;;;21.30;59.60;;;;;;4955786;28;20430;-30
2022/10/12 04:03:01;;;;;;;4.43;2.63;;;21.30;59.60;;;;;;4957783;28;20174;-17
2022/10/12 04:05:27;;;;;;;3.90;2.83;;;21.30;59.70;;;;;;4954877;28;20353;-26
2022/10/12 04:07:52;;;;;;;3.97;2.40;;;21.30;60.40;;;;;;4951379;28;20479;-27
2022/10/12 04:10:18;;;;;;;3.90;2.50;;;21.20;59.70;;;;;;4953748;28;20086;-16
2022/10/12 04:12:44;;;;;;;4.13;2.35;;;21.20;59.60;;;;;;4956296;28;20110;-15
2022/10/12 04:15:10;;;;;;;6.65;3.17;;;21.20;59.50;;;;;;4954334;28;20093;-22
2022/10/12 04:17:35;;;;;;;3.38;2.33;;;21.30;59.70;;;;;;4956169;28;20047;-14
2022/10/12 04:20:01;;;;;;;6.65;2.55;;;21.30;59.80;;;;;;4955027;28;20138;-14
2022/10/12 04:22:27;;;;;;;3.03;2.00;;;21.30;60.40;;;;;;4956916;28;20039;-14
2022/10/12 04:24:52;;;;;;;3.22;2.10;;;21.20;59.60;;;;;;4955159;28;20086;-15
2022/10/12 04:27:18;;;;;;;3.45;1.90;;;21.20;59.60;;;;;;4952269;28;20490;-15
2022/10/12 04:29:44;;;;;;;2.72;2.00;;;21.20;59.50;;;;;;4958990;28;20414;-21
2022/10/12 04:32:09;;;;;;;4.05;2.13;;;21.30;59.70;;;;;;4954137;28;20035;-15
2022/10/12 04:34:35;;;;;;;3.05;2.13;;;21.30;59.50;;;;;;4955808;28;20039;-15
2022/10/12 04:37:01;;;;;;;3.30;2.15;;;21.30;59.40;;;;;;4970754;28;20064;-14
2022/10/12 04:39:27;;;;;;;3.38;1.88;;;21.30;59.40;;;;;;4955882;28;20062;-15
2022/10/12 04:41:52;;;;;;;2.30;2.10;;;21.30;59.50;;;;;;4955200;28;20047;-14
2022/10/12 04:44:18;;;;;;;2.47;1.85;;;21.30;59.50;;;;;;4957133;28;20057;-22
2022/10/12 04:46:43;;;;;;;3.55;1.85;;;21.30;59.50;;;;;;4959920;28;20126;-14
2022/10/12 04:49:09;;;;;;;3.75;2.00;;;21.20;59.60;;;;;;4956210;28;20050;-15
2022/10/12 04:51:35;;;;;;;2.13;1.80;;;21.30;59.50;;;;;;4956549;28;20051;-20
2022/10/12 04:54:00;;;;;;;1.95;1.48;;;21.30;59.50;;;;;;4956675;28;20524;-17
2022/10/12 04:56:26;;;;;;;3.53;1.83;;;21.20;59.50;;;;;;4955825;28;20414;-17
2022/10/12 04:58:51;;;;;;;1.42;1.25;;;21.20;59.60;;;;;;4952760;28;20415;-29
2022/10/12 05:01:17;;;;;;;2.42;1.52;;;21.20;60.10;;;;;;4958059;28;20054;-14
2022/10/12 05:03:43;;;;;;;2.50;1.60;;;21.20;59.40;;;;;;4956558;28;20539;-26
2022/10/12 05:06:08;;;;;;;2.05;1.48;;;21.30;59.40;;;;;;4958342;28;20051;-19
2022/10/12 05:08:34;;;;;;;2.03;1.25;;;21.20;59.50;;;;;;4952858;28;20057;-23
2022/10/12 05:10:59;;;;;;;2.95;1.15;;;21.20;59.50;;;;;;4960457;28;20480;-17
2022/10/12 05:13:25;;;;;;;1.55;1.23;;;21.20;59.50;;;;;;4953426;28;20125;-15
2022/10/12 05:15:51;;;;;;;2.33;1.42;;;21.20;59.50;;;;;;4952087;28;20058;-15
2022/10/12 05:18:16;;;;;;;1.48;1.25;;;21.20;59.40;;;;;;4956977;28;20125;-14
2022/10/12 05:20:43;;;;;;;2.40;1.50;;;21.10;59.50;;;;;;4955426;28;20422;-16
2022/10/12 05:23:09;;;;;;;2.08;1.42;;;21.20;59.40;;;;;;4970457;28;20043;-21
2022/10/12 05:25:35;;;;;;;1.40;1.20;;;21.10;59.40;;;;;;4956488;28;20051;-27
2022/10/12 05:28:01;;;;;;;2.67;0.98;;;21.10;59.50;;;;;;4957912;28;20437;-14
2022/10/12 05:30:26;;;;;;;1.92;1.25;;;21.10;59.50;;;;;;4953194;28;20093;-21
2022/10/12 05:32:52;;;;;;;2.28;1.13;;;21.10;59.50;;;;;;4959319;28;20038;-16
2022/10/12 05:35:17;;;;;;;1.70;1.20;;;21.10;59.50;;;;;;4953680;28;20440;-15
2022/10/12 05:37:43;;;;;;;2.72;1.27;;;21.00;59.50;;;;;;4954287;28;20039;-16
2022/10/12 05:40:09;;;;;;;1.48;1.38;;;21.00;59.60;;;;;;4951819;28;20450;-14
2022/10/12 05:42:34;;;;;;;1.98;1.13;;;21.10;59.60;;;;;;4953977;28;20051;-21
2022/10/12 05:45:00;;;;;;;1.60;1.00;;;21.10;60.30;;;;;;4954196;28;20298;-24
2022/10/12 05:47:26;;;;;;;1.45;1.15;;;21.10;59.40;;;;;;4949138;28;20485;-14
2022/10/12 05:49:51;;;;;;;1.27;1.00;;;21.20;59.40;;;;;;4951314;28;20035;-21
2022/10/12 05:52:17;;;;;;;1.05;0.90;;;21.10;59.30;;;;;;4951645;28;20051;-18
2022/10/12 05:54:43;;;;;;;1.27;1.03;;;21.20;59.40;;;;;;4601765;28;10000318;-19
2022/10/12 05:57:08;;;;;;;1.05;0.93;;;21.10;60.10;;;;;;4953155;28;20357;-18
2022/10/12 05:59:34;;;;;;;1.30;1.13;;;21.20;59.40;;;;;;4948903;28;20513;-15
2022/10/12 06:01:59;;;;;;;1.13;0.98;;;21.20;59.20;;;;;;4952704;28;20061;-18
2022/10/12 06:04:25;;;;;;;1.60;1.10;;;21.20;59.30;;;;;;4950145;28;20417;-22
2022/10/12 06:06:50;;;;;;;1.13;0.80;;;21.10;59.40;;;;;;4945997;28;20051;-14
2022/10/12 06:09:16;;;;;;;3.25;1.20;;;21.10;59.40;;;;;;4949804;28;20129;-24
2022/10/12 06:11:42;;;;;;;1.77;1.20;;;21.10;59.40;;;;;;4948574;28;20506;-23
2022/10/12 06:14:07;;;;;;;1.67;0.80;;;21.10;59.50;;;;;;4947701;28;20050;-26
2022/10/12 06:16:33;;;;;;;1.00;0.70;;;21.10;59.40;;;;;;4949166;28;20062;-21
2022/10/12 06:18:58;;;;;;;0.85;0.70;;;21.20;59.30;;;;;;4949721;28;20598;-19
2022/10/12 06:21:24;;;;;;;0.98;0.70;;;21.20;60.00;;;;;;4946777;28;20077;-13
2022/10/12 06:23:49;;;;;;;0.63;0.60;;;21.20;59.30;;;;;;4947048;28;20811;-25
2022/10/12 06:26:15;;;;;;;0.93;0.70;;;21.20;59.20;;;;;;4949399;28;20114;-16
2022/10/12 06:28:42;;;;;;;0.98;0.50;;;21.20;59.00;;;;;;4952102;28;20505;-16
2022/10/12 06:31:07;;;;;;;1.30;0.63;;;21.30;59.00;;;;;;4944560;28;20418;-18
2022/10/12 06:33:33;;;;;;;1.42;0.90;;;21.30;58.90;;;;;;4954905;28;20055;-23
2022/10/12 06:35:59;;;;;;;0.93;0.80;;;21.30;58.90;;;;;;4973404;28;20058;-21
2022/10/12 06:38:24;;;;;;;1.08;0.75;;;21.30;58.90;;;;;;4951873;28;20758;-20
2022/10/12 06:40:51;;;;;;;1.70;0.45;;;21.30;58.90;;;;;;4949827;28;20474;-21
2022/10/12 06:43:16;;;;;;;0.82;0.73;;;21.30;59.00;;;;;;4953222;28;20050;-21
2022/10/12 06:45:42;;;;;;;0.90;0.70;;;21.20;58.90;;;;;;4954800;28;20051;-21
2022/10/12 06:48:07;;;;;;;0.90;0.50;;;21.20;58.90;;;;;;4951713;28;20035;-20
2022/10/12 06:50:34;;;;;;;0.95;0.85;;;21.20;59.70;;;;;;4955850;28;20041;-20
2022/10/12 06:52:59;;;;;;;2.30;0.75;;;21.10;59.10;;;;;;4953217;28;20532;-21
2022/10/12 06:55:25;;;;;;;0.70;0.70;;;21.10;59.40;;;;;;4952708;28;20054;-20
2022/10/12 06:57:50;;;;;;;2.67;0.73;;;21.10;59.30;;;;;;4955978;28;20462;-20
2022/10/12 07:00:16;;;;;;;1.90;0.70;;;21.10;59.20;;;;;;4953815;28;20047;-21
2022/10/12 07:02:42;;;;;;;0.90;0.65;;;21.10;59.10;;;;;;4954312;28;20676;-27
2022/10/12 07:05:07;;;;;;;1.67;0.70;;;21.10;59.20;;;;;;4951437;28;20466;-21
2022/10/12 07:07:34;;;;;;;1.10;0.68;;;21.10;59.10;;;;;;4952472;28;20561;-21
2022/10/12 07:10:00;;;;;;;0.43;0.43;;;21.00;59.20;;;;;;4955729;28;20048;-20
2022/10/12 07:12:25;;;;;;;0.80;0.73;;;21.00;59.30;;;;;;4956766;28;20062;-21
2022/10/12 07:14:53;;;;;;;0.68;0.68;;;21.00;59.90;;;;;;4953042;28;20047;-21
2022/10/12 07:17:19;;;;;;;1.02;0.70;;;21.00;59.40;;;;;;4954074;28;20050;-21
2022/10/12 07:19:44;;;;;;;0.90;0.60;;;21.00;59.30;;;;;;4957266;28;20394;-20
2022/10/12 07:22:10;;;;;;;0.75;0.75;;;21.00;59.20;;;;;;4953776;28;20050;-21
2022/10/12 07:24:35;;;;;;;0.90;0.63;;;21.00;60.10;;;;;;4955643;28;20043;-20
2022/10/12 07:27:02;;;;;;;0.90;0.60;;;20.90;59.40;;;;;;4953968;28;20042;-20
2022/10/12 07:29:30;;;;;;;0.70;0.50;;;20.90;59.30;;;;;;4953313;28;20039;-21
2022/10/12 07:31:56;;;;;;;0.70;0.65;;;20.90;59.30;;;;;;4952622;28;20137;-20
2022/10/12 07:34:22;;;;;;;0.70;0.57;;;20.90;59.40;;;;;;4953420;28;20279;-22
2022/10/12 07:36:47;;;;;;;0.50;0.50;;;20.90;59.40;;;;;;4953306;28;20641;-21
2022/10/12 07:39:13;;;;;;;0.80;0.60;;;20.90;59.50;;;;;;4952541;28;20410;-21
2022/10/12 07:41:38;;;;;;;0.68;0.68;;;20.90;59.50;;;;;;4955045;28;20046;-21
2022/10/12 07:44:04;;;;;;;0.95;0.50;;;20.90;59.50;;;;;;4952181;28;20126;-20
2022/10/12 07:46:29;;;;;;;0.73;0.60;;;20.80;59.50;;;;;;4952128;28;20035;-20
2022/10/12 07:48:56;;;;;;;1.73;0.90;;;20.90;59.40;;;;;;4953352;28;20075;-22
2022/10/12 07:51:22;;;;;;;0.43;0.43;;;21.00;59.40;;;;;;4954615;28;20051;-21
2022/10/12 07:53:49;;;;;;;0.50;0.50;;;21.00;59.30;;;;;;4954082;28;20045;-20
2022/10/12 07:56:15;;;;;;;0.80;0.50;;;21.00;59.20;;;;;;4956334;28;20053;-20
2022/10/12 07:58:41;;;;;;;1.00;0.40;;;21.00;59.10;;;;;;4952730;28;20413;-29
2022/10/12 08:01:07;;;;;;;0.32;0.30;;;21.20;58.90;;;;;;4954796;28;20047;-20
2022/10/12 08:03:33;;;;;;;0.50;0.40;;;21.20;58.60;;;;;;4960431;28;20532;-21
2022/10/12 08:05:59;;;;;;;0.30;0.30;;;21.30;58.60;;;;;;4956342;28;20043;-20
2022/10/12 08:08:24;;;;;;;0.43;0.40;;;21.20;58.60;;;;;;4957261;28;20094;-20
2022/10/12 08:10:50;;;;;;;0.40;0.40;;;21.30;58.50;;;;;;4957126;28;20054;-21
2022/10/12 08:13:15;;;;;;;0.38;0.35;;;21.30;58.50;;;;;;4955505;28;20153;-20
2022/10/12 08:15:48;;;;;;;0.50;0.50;;;21.30;58.50;;;;;;4956356;28;20050;-20
2022/10/12 08:18:13;;;;;;;0.52;0.40;;;21.20;58.70;;;;;;4960465;28;20170;-21
2022/10/12 08:20:39;;;;;;;0.50;0.50;;;21.10;58.80;;;;;;4956295;28;20142;-21
2022/10/12 08:23:04;;;;;;;0.50;0.30;;;21.10;58.80;;;;;;4957604;28;20042;-21
2022/10/12 08:25:30;;;;;;;0.50;0.50;;;21.00;58.90;;;;;;4959246;28;20043;-21
2022/10/12 08:27:57;;;;;;;0.40;0.40;;;21.00;59.60;;;;;;4958214;28;20506;-21
2022/10/12 08:30:25;;;;;;;0.30;0.30;;;21.00;59.00;;;;;;4960519;28;20122;-22
2022/10/12 08:32:51;;;;;;;0.77;0.30;;;21.00;59.00;;;;;;4956122;28;20106;-20
2022/10/12 08:35:17;;;;;;;0.40;0.40;;;21.10;58.90;;;;;;4956587;28;20043;-21
2022/10/12 08:37:42;;;;;;;0.30;0.30;;;21.10;58.90;;;;;;4956706;28;20055;-20
2022/10/12 08:40:13;;;;;;;0.55;0.30;;;21.10;58.80;;;;;;4956809;28;20043;-20
2022/10/12 08:42:41;;;;;;;0.40;0.40;;;21.20;58.80;;;;;;4956108;28;20039;-22
2022/10/12 08:45:32;;;;;;;0.40;0.40;;;21.20;58.80;;;;;;4955936;28;20070;-21
2022/10/12 08:48:00;;;;;;;0.55;0.40;;;21.20;58.60;;;;;;4951999;28;20039;-20
2022/10/12 08:50:33;;;;;;;0.40;0.40;;;21.30;58.40;;;;;;4953509;28;20123;-20
2022/10/12 08:53:14;;;;;;;0.30;0.30;;;21.30;58.20;;;;;;4975918;28;20059;-20
2022/10/12 08:55:42;;;;;;;0.50;0.47;;;21.20;58.00;;;;;;4951993;28;20211;-21
2022/10/12 08:58:30;;;;;;;0.30;0.30;;;21.30;58.00;;;;;;4956695;28;20063;-21
2022/10/12 09:01:13;;;;;;;0.50;0.40;;;21.30;57.90;;;;;;4953213;28;20055;-20
2022/10/12 09:04:06;;;;;;;0.63;0.43;;;21.40;58.10;;;;;;4954255;28;20518;-21
2022/10/12 09:06:34;;;;;;;0.40;0.40;;;21.40;58.10;;;;;;4953867;28;20054;-21
2022/10/12 09:09:18;;;;;;;0.95;0.50;;;21.40;58.00;;;;;;4938044;28;20078;-21
2022/10/12 09:11:58;;;;;;;0.40;0.40;;;21.40;58.00;;;;;;4954678;28;20055;-21
2022/10/12 09:14:30;;;;;;;1.73;0.30;;;21.40;58.00;;;;;;4951575;28;20062;-20
2022/10/12 09:16:56;;;;;;;0.45;0.40;;;21.40;58.00;;;;;;4958069;28;20038;-21
2022/10/12 09:19:27;;;;;;;0.70;0.30;;;21.40;58.00;;;;;;4955453;28;20036;-21
2022/10/12 09:21:53;;;;;;;0.20;0.20;;;21.40;58.00;;;;;;4959879;28;20043;-21
2022/10/12 09:24:21;;;;;;;0.35;0.30;;;21.40;58.00;;;;;;4952898;28;20173;-21
2022/10/12 09:26:49;;;;;;;0.30;0.30;;;21.50;58.70;;;;;;4970004;28;20122;-30
2022/10/12 09:29:24;;;;;;;0.40;0.40;;;21.40;58.00;;;;;;4953603;28;20425;-21
2022/10/12 09:32:27;;;;;;;0.30;0.20;;;21.50;58.00;;;;;;4953970;28;20051;-21
2022/10/12 09:34:53;;;;;;;0.32;0.32;;;21.40;58.00;;;;;;4957753;28;20498;-20
2022/10/12 09:37:20;;;;;;;0.28;0.28;;;21.50;58.00;;;;;;4973621;28;20034;-21
2022/10/12 09:39:46;;;;;;;0.35;0.30;;;21.50;58.00;;;;;;4937926;28;20058;-20
2022/10/12 09:42:11;;;;;;;0.35;0.35;;;21.50;58.00;;;;;;4953572;28;20558;-21
2022/10/12 09:44:48;;;;;;;0.30;0.30;;;21.50;58.00;;;;;;4956925;28;20087;-29
2022/10/12 09:47:19;;;;;;;0.10;0.10;;;21.50;58.00;;;;;;4952849;28;20106;-21
2022/10/12 09:49:46;;;;;;;0.20;0.20;;;21.50;58.00;;;;;;4955531;28;20055;-24
2022/10/12 09:52:14;;;;;;;0.47;0.45;;;21.50;58.00;;;;;;4954886;28;20069;-21
2022/10/12 09:54:44;;;;;;;0.43;0.43;;;21.60;58.10;;;;;;4972787;28;20028;-20
2022/10/12 09:57:09;;;;;;;1.15;0.30;;;21.50;58.10;;;;;;4957708;28;20426;-21
2022/10/12 09:59:41;;;;;;;0.35;0.28;;;21.60;58.10;;;;;;4953204;28;20023;-21
2022/10/12 10:02:07;;;;;;;0.30;0.25;;;21.60;58.10;;;;;;4957753;28;20591;-20
2022/10/12 10:04:32;;;;;;;0.30;0.30;;;21.50;58.10;;;;;;4952924;28;20130;-21
2022/10/12 10:07:30;;;;;;;0.40;0.40;;;21.60;58.10;;;;;;4952456;28;20137;-21
2022/10/12 10:10:18;;;;;;;0.40;0.30;;;21.50;58.30;;;;;;4955108;28;20181;-21
2022/10/12 10:12:54;;;;;;;0.40;0.40;;;21.60;58.30;;;;;;4953584;28;20126;-21
2022/10/12 10:15:31;;;;;;;0.43;0.43;;;21.60;58.30;;;;;;4953815;28;20094;-20
2022/10/12 10:18:20;;;;;;;0.68;0.32;;;21.60;58.40;;;;;;4947251;28;20039;-21
2022/10/12 10:20:50;;;;;;;0.30;0.30;;;21.50;58.30;;;;;;4950360;28;20121;-20
2022/10/12 10:23:27;;;;;;;0.30;0.30;;;21.60;58.40;;;;;;4954841;28;20067;-20
2022/10/12 10:25:57;;;;;;;0.40;0.40;;;21.50;58.30;;;;;;4950431;28;20043;-21
2022/10/12 10:28:25;;;;;;;0.45;0.40;;;21.60;58.40;;;;;;4950636;28;20035;-21
2022/10/12 10:31:01;;;;;;;0.50;0.47;;;21.50;58.40;;;;;;4948689;28;20058;-21
2022/10/12 10:33:27;;;;;;;0.43;0.40;;;21.50;58.50;;;;;;4981945;28;20039;-26
2022/10/12 10:35:58;;;;;;;0.40;0.40;;;21.50;58.50;;;;;;4952758;28;20050;-21
2022/10/12 10:38:23;;;;;;;0.35;0.30;;;21.50;58.50;;;;;;4964220;28;20490;-21
2022/10/12 10:40:50;;;;;;;0.77;0.50;;;21.50;59.20;;;;;;4967180;28;20050;-21
2022/10/12 10:43:23;;;;;;;0.22;0.22;;;21.50;58.60;;;;;;4965367;28;20035;-21
2022/10/12 10:45:59;;;;;;;0.40;0.40;;;21.50;58.70;;;;;;4959850;28;20053;-21
2022/10/12 10:48:57;;;;;;;1.67;0.60;;;21.50;58.70;;;;;;4950197;28;20058;-21
2022/10/12 10:51:40;;;;;;;0.40;0.40;;;21.60;59.40;;;;;;4964609;28;20047;-21
2022/10/12 10:54:13;;;;;;;0.50;0.50;;;21.60;58.80;;;;;;4951776;28;20043;-21
2022/10/12 10:56:39;;;;;;;0.50;0.50;;;21.60;58.70;;;;;;4955148;28;20039;-21
2022/10/12 10:59:15;;;;;;;0.75;0.75;;;21.60;58.80;;;;;;4951617;28;20053;-21
2022/10/12 11:01:51;;;;;;;0.50;0.50;;;21.60;58.70;;;;;;4960970;28;20086;-21
2022/10/12 11:04:36;;;;;;;1.40;1.10;;;21.70;58.70;;;;;;4949539;28;20047;-21
2022/10/12 11:07:06;;;;;;;0.70;0.70;;;21.70;58.70;;;;;;4956984;28;20073;-22
2022/10/12 11:09:42;;;;;;;0.82;0.80;;;21.70;58.60;;;;;;4965176;28;20134;-21
2022/10/12 11:12:11;;;;;;;0.98;0.60;;;21.70;58.50;;;;;;4950571;28;20050;-20
2022/10/12 11:14:43;;;;;;;0.80;0.80;;;21.80;58.60;;;;;;4948866;28;20043;-21
2022/10/12 11:17:40;;;;;;;1.20;1.10;;;21.80;58.50;;;;;;4945544;28;20521;-21
2022/10/12 11:20:25;;;;;;;1.25;1.00;;;21.80;58.60;;;;;;4943441;28;20118;-21
2022/10/12 11:22:56;;;;;;;0.93;0.90;;;21.80;58.60;;;;;;4956156;28;20057;-21
2022/10/12 11:25:40;;;;;;;1.35;0.90;;;21.80;58.80;;;;;;4981723;28;20043;-21
2022/10/12 11:28:06;;;;;;;1.33;1.20;;;21.80;58.70;;;;;;4922317;29;20069;-22
2022/10/12 11:30:40;;;;;;;2.03;1.00;;;21.80;58.70;;;;;;4963395;28;20042;-21
2022/10/12 11:33:26;;;;;;;1.10;1.10;;;21.80;58.80;;;;;;4939506;28;20410;-21
2022/10/12 11:35:52;;;;;;;1.38;1.27;;;21.80;58.80;;;;;;4945565;28;20050;-20
2022/10/12 11:38:26;;;;;;;1.70;1.23;;;21.80;58.90;;;;;;4952772;28;20042;-21
2022/10/12 11:41:13;;;;;;;1.58;1.48;;;21.80;58.90;;;;;;4931941;28;20063;-21
2022/10/12 11:43:51;;;;;;;1.85;1.65;;;21.80;58.80;;;;;;4957444;28;20735;-21
2022/10/12 11:46:17;;;;;;;1.45;1.30;;;21.70;59.00;;;;;;4953701;28;20144;-20
2022/10/12 11:48:51;;;;;;;1.77;1.10;;;21.80;59.90;;;;;;4970664;28;20536;-20
2022/10/12 11:51:17;;;;;;;1.75;1.40;;;21.80;59.00;;;;;;4955991;28;20047;-21
2022/10/12 11:53:54;;;;;;;1.20;1.10;;;21.80;59.00;;;;;;4955104;28;20372;-21
2022/10/12 11:56:42;;;;;;;1.30;1.20;;;21.80;58.90;;;;;;4953354;28;20051;-21
2022/10/12 11:59:16;;;;;;;1.40;1.20;;;21.80;59.10;;;;;;4950412;28;20058;-19
2022/10/12 12:01:44;;;;;;;3.15;1.63;;;21.80;59.10;;;;;;4948179;28;20054;-21
2022/10/12 12:04:29;;;;;;;3.15;1.40;;;21.80;59.20;;;;;;4953760;28;20057;-21
2022/10/12 12:06:56;;;;;;;1.52;1.35;;;21.80;59.20;;;;;;4954753;28;20058;-21
2022/10/12 12:09:36;;;;;;;1.40;1.02;;;21.80;59.20;;;;;;4954217;28;20074;-21
2022/10/12 12:12:08;;;;;;;1.63;1.52;;;21.80;59.10;;;;;;4955638;28;20102;-21
2022/10/12 12:14:39;;;;;;;1.40;1.30;;;21.80;59.30;;;;;;4952514;28;20055;-22
2022/10/12 12:17:23;;;;;;;1.73;1.60;;;21.80;59.20;;;;;;4967674;28;20043;-24
2022/10/12 12:19:48;;;;;;;2.55;1.20;;;21.80;59.30;;;;;;4954498;28;20530;-24
2022/10/12 12:22:18;;;;;;;2.35;1.42;;;22.00;59.20;;;;;;4952755;28;20051;-28
2022/10/12 12:25:09;;;;;;;1.80;1.70;;;21.60;80.30;;;;;;4953145;28;20263;-28
2022/10/12 12:27:36;;;;;;;1.10;1.00;;;21.30;71.10;;;;;;4953677;28;20089;-30
2022/10/12 12:30:23;;;;;;;1.02;1.00;;;21.20;72.80;;;;;;4968942;28;20047;-28
2022/10/12 12:32:49;;;;;;;2.67;1.20;;;21.20;68.60;;;;;;4971895;28;20051;-19
2022/10/12 12:35:20;;;;;;;2.65;1.00;;;21.20;66.60;;;;;;4955196;28;20053;-18
2022/10/12 12:37:45;;;;;;;3.13;1.25;;;21.10;64.70;;;;;;4951160;28;20047;-19
2022/10/12 12:40:21;;;;;;;1.65;1.50;;;21.10;64.50;;;;;;4953665;28;20182;-18
2022/10/12 12:42:47;;;;;;;1.40;1.30;;;21.10;63.10;;;;;;4971346;28;20047;-18
2022/10/12 12:45:31;;;;;;;1.98;1.23;;;21.10;62.40;;;;;;4956885;28;20105;-18
2022/10/12 12:47:56;;;;;;;1.95;1.20;;;21.10;62.70;;;;;;4950316;28;20050;-19
2022/10/12 12:50:36;;;;;;;0.95;0.93;;;21.10;62.80;;;;;;4958089;28;20039;-18
2022/10/12 12:53:05;;;;;;;1.85;1.10;;;21.10;63.20;;;;;;4954096;28;20130;-18
2022/10/12 12:56:00;;;;;;;1.73;1.20;;;21.10;67.60;;;;;;4951677;28;20532;-18
2022/10/12 12:58:34;;;;;;;0.98;0.98;;;21.10;74.70;;;;;;4968288;28;20054;-18